Aérodrome :
LOGIN :

S'inscrire | Disclaimer

   EN    FR    IT 

 










Légende :    VFR   VFR Marginal   IFR   IFR Intensif   IFR Très Intensif
Visi : 
Plafond : 
>= 8 km
>= 3000ft
5 à 8 km
1000 à 3000 ft
1500m à 5 km
500 à 1000 ft
800 à 1500m
200 à 500 ft
< 800m
< 200 ft
Symboles :   Orages  Brouillard  Fortes neiges  Fortes précipitations  Vent > 20 kt
SIGMETs :   Divers  Orages  Givrage  Turbulence  Onde Orograph.  Cendres Volcan.






- Altitude de l'aérodrome : 36 ft
- Code IATA : LTQ


LFAT - Le Touquet

DERNIER METAR :
  • 281200Z AUTO 29016G28KT 250V320 9999 FEW033 08/00 Q1000 NOSIG

METARs EXPIRÉS :
  • 281130Z AUTO 28016G28KT 230V310 9999 BKN035 07/00 Q0999 NOSIG
  • 281100Z AUTO 28015G25KT 190V320 9999 BKN035 BKN043 07/00 Q0999 TEMPO 28025G35KT
  • 281030Z AUTO 28014G26KT 250V320 9999 BKN035 07/00 Q0998 TEMPO 28025G35KT
  • 281000Z AUTO 28015KT 260V320 9999 BKN032 07/00 Q0998 TEMPO 28025G35KT
  • 280930Z AUTO 29014KT 250V320 9999 BKN031 BKN098 07/00 Q0997 TEMPO 28025G35KT

TAF TAF LFAT
Valide du 28 à 12h jusqu'au 28 à 21h UTC


281100Z 2812/2821 28015G25KT 9999 BKN030
TEMPO 2812/2821 28025G35KT
TEMPO 2814/2820 3000 SHRA BKN025CB
ATIS : +33 3 21 06 62 84



MET'MAP, la Météo Aéronautique d'un coup d'oeil ! - Copyright ORBIFLY Décembre 2007 - Disclaimer

ORBIFLY MET'MAP TEAM :

Programmation & Développement : Alexandra Zaïnal
Sur une idée originale de : Baudouin d'Aumeries
Assistance à la programmation : Marc-Olivier Méhu
Soutien technique & logistique : Manuel Goepfert

Contact : metmap@orbifly.com




SOURCES & CREDITS :

   NOAA